Terminal Aerodrome Forecast
Issued by NWS

Home | Current Version | Previous Version | Text Only | Print | Product List | Glossary On
Versions: 1 2 3 4 5 6 7 8 9 10 11 12 13 14 15 16 17 18 19 20 21 22 23 24
236
FTUS46 KSGX 130300 AAA
TAFSAN
TAF AMD
KSAN 130300Z 1303/1406 VRB03KT P6SM FEW250
     FM130500 VRB03KT P6SM VCFG SCT005 SCT250
     FM131400 VRB04KT P6SM SCT250
     FM132200 31010KT P6SM SCT250
     FM140100 VRB04KT P6SM VCFG FEW006=

USA.gov is the U.S. government's official web portal to all federal, state and local government web resources and services.